Terminal Aerodrome Forecast
Issued by NWS Sterling, VA

Current Version | Previous Version | Text Only | Print | Product List | Glossary Off
Versions: 1 2 3 4 5 6 7 8 9 10 11 12 13 14 15 16 17 18 19 20 21 22 23 24

000
FTUS41 KLWX 250417 AAA
TAFIAD
TAF AMD
KIAD 250417Z 2504/2606 16010KT P6SM BKN250
     FM250700 17008KT P6SM BKN015
     FM251500 17012KT 1 1/2SM -SHRA BKN015
     FM251800 19013G21KT 3SM -SHRA OVC030
     FM252100 29017G26KT P6SM OVC045
     FM252300 29018G28KT P6SM SCT250=

USA.gov is the U.S. government's official web portal to all federal, state and local government web resources and services.